Time;durP1;ratioP1;P1;durP2;ratioP2;P2;SDS_P1;SDS_P2;PMS_P1;PMS_P2;Temp;Humidity;BMP_temperature;BMP_pressure;BME280_temperature;BME280_humidity;BME280_pressure;Samples;Min_cycle;Max_cycle;Signal;HPM_P1;HPM_P2
2023/10/08 00:02:52;;;;;;;4.90;2.90;;;;;;;;;;4921738;29;20447;-62
2023/10/08 00:05:22;;;;;;;4.50;3.10;;;;;;;;;;4927573;29;20522;-61
2023/10/08 00:07:55;;;;;;;4.10;2.83;;;;;;;;;;4922984;29;20450;-61
2023/10/08 00:10:26;;;;;;;6.53;3.25;;;;;;;;;;4921623;29;20507;-61
2023/10/08 00:12:53;;;;;;;5.35;3.10;;;;;;;;;;4926780;29;20435;-61
2023/10/08 00:15:25;;;;;;;4.13;2.90;;;;;;;;;;4919922;29;20479;-61
2023/10/08 00:17:55;;;;;;;5.57;3.35;;;;;;;;;;4918852;29;20440;-61
2023/10/08 00:20:25;;;;;;;5.05;3.05;;;;;;;;;;4919099;29;20502;-61
2023/10/08 00:22:56;;;;;;;4.90;3.33;;;;;;;;;;4916126;29;20996;-62
2023/10/08 00:25:27;;;;;;;4.50;3.00;;;;;;;;;;4920672;29;20443;-62
2023/10/08 00:27:54;;;;;;;4.40;3.08;;;;;;;;;;4914557;29;20447;-61
2023/10/08 00:30:21;;;;;;;6.00;3.35;;;;;;;;;;4920733;29;20810;-61
2023/10/08 00:32:48;;;;;;;5.20;3.00;;;;;;;;;;4924770;29;20438;-62
2023/10/08 00:35:20;;;;;;;3.83;3.20;;;;;;;;;;4921411;29;20502;-61
2023/10/08 00:37:48;;;;;;;4.85;2.85;;;;;;;;;;4920341;29;20494;-61
2023/10/08 00:40:21;;;;;;;6.03;3.08;;;;;;;;;;4917568;29;20934;-61
2023/10/08 00:42:51;;;;;;;4.93;2.90;;;;;;;;;;4911946;29;20513;-61
2023/10/08 00:45:19;;;;;;;5.57;2.60;;;;;;;;;;4926885;29;20437;-61
2023/10/08 00:47:47;;;;;;;4.65;2.80;;;;;;;;;;4925402;29;20976;-61
2023/10/08 00:50:21;;;;;;;6.78;3.47;;;;;;;;;;4921313;29;20517;-61
2023/10/08 00:53:09;;;;;;;6.07;3.20;;;;;;;;;;4922845;29;20435;-61
2023/10/08 00:55:37;;;;;;;4.60;2.92;;;;;;;;;;4922283;29;20805;-61
2023/10/08 00:58:09;;;;;;;4.13;3.00;;;;;;;;;;4920724;29;20435;-61
2023/10/08 01:00:41;;;;;;;3.80;2.70;;;;;;;;;;4926144;29;20530;-61
2023/10/08 01:03:14;;;;;;;3.10;2.80;;;;;;;;;;4924434;29;20443;-61
2023/10/08 01:05:46;;;;;;;4.63;3.05;;;;;;;;;;4912088;29;20439;-61
2023/10/08 01:08:22;;;;;;;5.22;2.58;;;;;;;;;;4921276;29;20526;-61
2023/10/08 01:10:58;;;;;;;12.00;3.17;;;;;;;;;;4919907;29;20443;-61
2023/10/08 01:13:26;;;;;;;4.47;3.00;;;;;;;;;;4913272;29;20998;-61
2023/10/08 01:15:57;;;;;;;5.40;3.00;;;;;;;;;;4923337;29;20447;-61
2023/10/08 01:18:32;;;;;;;6.03;2.95;;;;;;;;;;4908541;29;20439;-61
2023/10/08 01:21:07;;;;;;;3.33;2.38;;;;;;;;;;4924448;29;20443;-61
2023/10/08 01:23:34;;;;;;;4.00;2.80;;;;;;;;;;4926806;29;20518;-61
2023/10/08 01:26:10;;;;;;;6.10;2.95;;;;;;;;;;4926943;29;20539;-61
2023/10/08 01:28:40;;;;;;;5.38;3.30;;;;;;;;;;4926971;29;20453;-61
2023/10/08 01:31:10;;;;;;;4.55;3.00;;;;;;;;;;4926409;29;20507;-62
2023/10/08 01:33:38;;;;;;;5.77;3.33;;;;;;;;;;4923379;29;20642;-61
2023/10/08 01:36:12;;;;;;;4.50;2.75;;;;;;;;;;4925674;29;20449;-61
2023/10/08 01:38:41;;;;;;;4.68;3.03;;;;;;;;;;4913389;29;20534;-61
2023/10/08 01:41:18;;;;;;;4.88;3.05;;;;;;;;;;4918768;29;20966;-61
2023/10/08 01:43:50;;;;;;;4.72;2.80;;;;;;;;;;4918591;29;20439;-61
2023/10/08 01:46:17;;;;;;;6.28;3.05;;;;;;;;;;4927285;29;20478;-62
2023/10/08 01:48:44;;;;;;;6.15;3.22;;;;;;;;;;4921879;29;20542;-62
2023/10/08 01:51:24;;;;;;;3.78;2.65;;;;;;;;;;4924709;29;20561;-62
2023/10/08 01:53:55;;;;;;;4.43;2.70;;;;;;;;;;4926815;29;20526;-62
2023/10/08 01:56:28;;;;;;;3.55;2.67;;;;;;;;;;4925758;29;20439;-61
2023/10/08 01:58:55;;;;;;;3.78;2.70;;;;;;;;;;4923360;29;20503;-62
2023/10/08 02:01:23;;;;;;;4.05;2.83;;;;;;;;;;4924881;29;20441;-62
2023/10/08 02:03:53;;;;;;;4.57;2.80;;;;;;;;;;4921330;29;20528;-61
2023/10/08 02:06:20;;;;;;;4.97;2.60;;;;;;;;;;4928584;29;20982;-61
2023/10/08 02:08:51;;;;;;;5.70;2.95;;;;;;;;;;4915166;29;20444;-61
2023/10/08 02:11:20;;;;;;;7.32;3.10;;;;;;;;;;4922664;29;20475;-61
2023/10/08 02:13:47;;;;;;;3.78;3.05;;;;;;;;;;4920390;29;20974;-61
2023/10/08 02:16:18;;;;;;;5.82;3.10;;;;;;;;;;4931748;29;20530;-61
2023/10/08 02:18:46;;;;;;;6.68;3.20;;;;;;;;;;4929393;29;20538;-61
2023/10/08 02:21:16;;;;;;;5.07;2.60;;;;;;;;;;4926270;29;20908;-61
2023/10/08 02:23:43;;;;;;;5.00;3.03;;;;;;;;;;4929225;29;20965;-61
2023/10/08 02:26:10;;;;;;;5.95;3.10;;;;;;;;;;4925033;29;20433;-61
2023/10/08 02:28:38;;;;;;;5.45;3.38;;;;;;;;;;4922321;29;21273;-61
2023/10/08 02:31:05;;;;;;;7.00;2.97;;;;;;;;;;4925291;29;20451;-61
2023/10/08 02:33:34;;;;;;;5.53;3.22;;;;;;;;;;4916186;29;20455;-61
2023/10/08 02:36:04;;;;;;;5.18;3.30;;;;;;;;;;4926637;29;20447;-61
2023/10/08 02:38:37;;;;;;;5.75;3.03;;;;;;;;;;4923728;29;20447;-61
2023/10/08 02:41:07;;;;;;;3.92;2.70;;;;;;;;;;4928764;29;20439;-61
2023/10/08 02:43:36;;;;;;;7.18;3.17;;;;;;;;;;4918636;29;20447;-61
2023/10/08 02:46:15;;;;;;;6.60;3.00;;;;;;;;;;4922786;29;20435;-61
2023/10/08 02:48:45;;;;;;;5.78;3.30;;;;;;;;;;4921386;29;20876;-61
2023/10/08 02:51:15;;;;;;;7.10;3.42;;;;;;;;;;4926186;29;20515;-61
2023/10/08 02:53:43;;;;;;;5.78;3.20;;;;;;;;;;4923272;29;20508;-61
2023/10/08 02:56:14;;;;;;;5.85;3.30;;;;;;;;;;4925604;29;20443;-61
2023/10/08 02:58:43;;;;;;;5.95;3.50;;;;;;;;;;4928977;29;20510;-61
2023/10/08 03:01:14;;;;;;;5.10;3.38;;;;;;;;;;4930341;29;20542;-61
2023/10/08 03:03:47;;;;;;;7.13;3.30;;;;;;;;;;4915099;29;20921;-61
2023/10/08 03:06:14;;;;;;;6.60;3.60;;;;;;;;;;4919777;29;20506;-61
2023/10/08 03:08:42;;;;;;;4.35;3.22;;;;;;;;;;4924493;29;20443;-61
2023/10/08 03:11:16;;;;;;;5.05;3.05;;;;;;;;;;4926793;29;20439;-61
2023/10/08 03:13:51;;;;;;;4.78;3.30;;;;;;;;;;4921511;29;20451;-62
2023/10/08 03:16:27;;;;;;;5.93;3.38;;;;;;;;;;4916479;29;20544;-61
2023/10/08 03:18:57;;;;;;;7.45;3.08;;;;;;;;;;4920350;29;20534;-62
2023/10/08 03:21:48;;;;;;;5.22;3.22;;;;;;;;;;4908386;29;20551;-61
2023/10/08 03:24:37;;;;;;;7.53;3.85;;;;;;;;;;4919378;29;20510;-61
2023/10/08 03:27:26;;;;;;;5.23;3.27;;;;;;;;;;4925834;29;20526;-61
2023/10/08 03:29:59;;;;;;;5.47;3.47;;;;;;;;;;4923951;29;20445;-61
2023/10/08 03:32:26;;;;;;;4.68;3.15;;;;;;;;;;4925258;29;20435;-61
2023/10/08 03:34:54;;;;;;;7.80;3.50;;;;;;;;;;4928164;29;20498;-62
2023/10/08 03:37:40;;;;;;;4.50;3.30;;;;;;;;;;4922264;29;20814;-61
2023/10/08 03:42:56;;;;;;;6.38;3.75;;;;;;;;;;4924307;29;20498;-61
2023/10/08 03:48:15;;;;;;;6.70;3.47;;;;;;;;;;4923445;29;20443;-62
2023/10/08 03:50:43;;;;;;;6.15;3.40;;;;;;;;;;4910725;29;20444;-61
2023/10/08 03:53:16;;;;;;;4.07;3.20;;;;;;;;;;4928101;29;20541;-61
2023/10/08 03:55:43;;;;;;;6.55;4.20;;;;;;;;;;4913516;29;20473;-62
2023/10/08 03:58:27;;;;;;;5.23;3.47;;;;;;;;;;4923522;29;20478;-61
2023/10/08 04:01:08;;;;;;;6.80;3.60;;;;;;;;;;4925888;29;20605;-62
2023/10/08 04:03:58;;;;;;;6.22;3.28;;;;;;;;;;4926037;29;20470;-62
2023/10/08 04:11:51;;;;;;;5.32;3.53;;;;;;;;;;4926328;29;20520;-62
2023/10/08 04:14:21;;;;;;;5.35;3.70;;;;;;;;;;4915705;29;20443;-61
2023/10/08 04:16:54;;;;;;;5.78;3.90;;;;;;;;;;4921937;29;20937;-62
2023/10/08 04:19:26;;;;;;;6.45;3.38;;;;;;;;;;4911702;29;21022;-61
2023/10/08 04:21:55;;;;;;;6.53;3.60;;;;;;;;;;4926291;29;20473;-62
2023/10/08 04:24:28;;;;;;;8.77;4.10;;;;;;;;;;4921548;29;20443;-61
2023/10/08 04:26:58;;;;;;;3.95;3.35;;;;;;;;;;4925207;29;20911;-61
2023/10/08 04:29:31;;;;;;;5.40;3.45;;;;;;;;;;4922549;29;20532;-61
2023/10/08 04:32:07;;;;;;;6.97;3.63;;;;;;;;;;4922375;29;20451;-61
2023/10/08 04:34:35;;;;;;;6.25;3.70;;;;;;;;;;4896535;29;20463;-61
2023/10/08 04:37:11;;;;;;;5.78;3.33;;;;;;;;;;4922658;29;20455;-61
2023/10/08 04:39:46;;;;;;;5.75;3.50;;;;;;;;;;4926258;29;20541;-61
2023/10/08 04:42:25;;;;;;;5.72;3.35;;;;;;;;;;4917504;29;20448;-61
2023/10/08 04:44:52;;;;;;;4.35;3.58;;;;;;;;;;4918368;29;20439;-62
2023/10/08 04:47:42;;;;;;;4.10;2.90;;;;;;;;;;4922182;29;20490;-61
2023/10/08 04:50:14;;;;;;;4.85;3.05;;;;;;;;;;4925171;29;20547;-61
2023/10/08 04:52:47;;;;;;;4.75;3.03;;;;;;;;;;4927224;29;20438;-62
2023/10/08 04:55:20;;;;;;;4.50;3.30;;;;;;;;;;4916409;29;20546;-61
2023/10/08 04:57:50;;;;;;;6.68;3.25;;;;;;;;;;4920556;29;20449;-61
2023/10/08 05:00:41;;;;;;;5.43;3.05;;;;;;;;;;4921646;29;20591;-62
2023/10/08 05:03:14;;;;;;;5.00;3.22;;;;;;;;;;4915878;29;20898;-61
2023/10/08 05:06:39;;;;;;;4.63;3.28;;;;;;;;;;4925026;29;20443;-61
2023/10/08 05:08:32;;;;;;;5.78;3.15;;;;;;;;;;4901471;29;20436;-62
2023/10/08 05:11:15;;;;;;;6.53;3.60;;;;;;;;;;4918585;29;20440;-61
2023/10/08 05:13:55;;;;;;;4.97;3.50;;;;;;;;;;4926355;29;20438;-62
2023/10/08 05:16:43;;;;;;;3.75;3.00;;;;;;;;;;4921812;29;20443;-61
2023/10/08 05:22:17;;;;;;;4.75;3.55;;;;;;;;;;4919789;29;20498;-61
2023/10/08 05:25:07;;;;;;;6.82;3.30;;;;;;;;;;4919918;29;20443;-61
2023/10/08 05:27:38;;;;;;;5.47;3.38;;;;;;;;;;4912217;29;20858;-62
2023/10/08 05:30:16;;;;;;;4.80;2.75;;;;;;;;;;4921810;29;20450;-62
2023/10/08 05:33:06;;;;;;;4.95;3.55;;;;;;;;;;4917117;29;20447;-61
2023/10/08 05:38:30;;;;;;;5.90;3.47;;;;;;;;;;4926643;29;20447;-61
2023/10/08 05:49:00;;;;;;;4.22;2.80;;;;;;;;;;4919804;29;20444;-61
2023/10/08 06:00:17;;;;;;;3.53;3.22;;;;;;;;;;4921402;29;20559;-61
2023/10/08 06:18:28;;;;;;;5.95;3.00;;;;;;;;;;4921223;29;20445;-62
2023/10/08 06:21:08;;;;;;;4.77;3.23;;;;;;;;;;4920911;29;20431;-62
2023/10/08 06:23:36;;;;;;;4.00;3.00;;;;;;;;;;4920733;29;20458;-62
2023/10/08 06:28:41;;;;;;;6.65;3.33;;;;;;;;;;4930053;29;20570;-61
2023/10/08 06:31:11;;;;;;;4.95;3.28;;;;;;;;;;4919560;29;20448;-62
2023/10/08 06:33:44;;;;;;;5.20;3.42;;;;;;;;;;4926733;29;20997;-62
2023/10/08 06:38:48;;;;;;;5.20;3.33;;;;;;;;;;4927230;29;20446;-61
2023/10/08 06:41:19;;;;;;;7.05;3.30;;;;;;;;;;4923923;29;20549;-62
2023/10/08 06:44:14;;;;;;;4.32;3.15;;;;;;;;;;4928924;29;21195;-61
2023/10/08 06:46:45;;;;;;;5.70;3.13;;;;;;;;;;4916726;29;20500;-62
2023/10/08 06:49:13;;;;;;;8.60;3.20;;;;;;;;;;4914130;29;20502;-62
2023/10/08 06:51:43;;;;;;;4.72;2.97;;;;;;;;;;4929181;29;20975;-62
2023/10/08 06:54:13;;;;;;;6.65;3.20;;;;;;;;;;4921670;29;20439;-62
2023/10/08 06:56:51;;;;;;;6.38;3.17;;;;;;;;;;4929460;29;20542;-62
2023/10/08 06:59:23;;;;;;;7.80;3.80;;;;;;;;;;4929175;29;20447;-62
2023/10/08 07:01:51;;;;;;;4.72;3.20;;;;;;;;;;4928163;29;20930;-61
2023/10/08 07:04:18;;;;;;;5.60;3.50;;;;;;;;;;4924948;29;20442;-61
2023/10/08 07:06:50;;;;;;;10.70;3.88;;;;;;;;;;4916955;29;20925;-62
2023/10/08 07:11:58;;;;;;;4.20;3.22;;;;;;;;;;4915835;29;20443;-61
2023/10/08 07:14:29;;;;;;;5.35;3.50;;;;;;;;;;4919003;29;20520;-62
2023/10/08 07:17:00;;;;;;;5.70;3.45;;;;;;;;;;4922162;29;20440;-62
2023/10/08 07:19:40;;;;;;;6.05;3.40;;;;;;;;;;4918920;29;20541;-62
2023/10/08 07:22:22;;;;;;;6.13;3.30;;;;;;;;;;4920716;29;20450;-61
2023/10/08 07:24:51;;;;;;;4.97;3.43;;;;;;;;;;4908180;29;20439;-61
2023/10/08 07:27:24;;;;;;;6.03;3.58;;;;;;;;;;4920760;29;20950;-61
2023/10/08 07:29:55;;;;;;;5.60;3.05;;;;;;;;;;4926690;29;20866;-61
2023/10/08 07:32:25;;;;;;;4.45;3.08;;;;;;;;;;4925420;29;20501;-62
2023/10/08 07:35:23;;;;;;;4.53;3.00;;;;;;;;;;4920205;29;20444;-62
2023/10/08 07:37:54;;;;;;;5.47;3.43;;;;;;;;;;4923777;29;20475;-62
2023/10/08 07:40:29;;;;;;;3.95;3.25;;;;;;;;;;4913086;29;20532;-62
2023/10/08 07:42:56;;;;;;;6.10;3.20;;;;;;;;;;4919984;29;20445;-62
2023/10/08 07:45:26;;;;;;;4.82;3.50;;;;;;;;;;4912994;29;20445;-62
2023/10/08 07:47:55;;;;;;;5.20;2.92;;;;;;;;;;4918767;29;20564;-62
2023/10/08 07:50:24;;;;;;;4.70;3.10;;;;;;;;;;4918271;29;20934;-62
2023/10/08 07:52:51;;;;;;;4.68;3.20;;;;;;;;;;4927219;29;21163;-62
2023/10/08 07:55:18;;;;;;;5.35;3.13;;;;;;;;;;4921501;29;20444;-62
2023/10/08 07:57:46;;;;;;;4.85;3.08;;;;;;;;;;4927026;29;20506;-62
2023/10/08 08:00:22;;;;;;;4.75;3.00;;;;;;;;;;4917438;29;20437;-62
2023/10/08 08:02:52;;;;;;;5.07;3.17;;;;;;;;;;4925523;29;20436;-61
2023/10/08 08:05:21;;;;;;;4.80;2.88;;;;;;;;;;4927869;29;20466;-62
2023/10/08 08:07:52;;;;;;;6.40;3.35;;;;;;;;;;4921127;29;20444;-61
2023/10/08 08:10:23;;;;;;;7.00;3.63;;;;;;;;;;4915335;29;20442;-61
2023/10/08 08:12:56;;;;;;;4.00;2.75;;;;;;;;;;4918609;29;20967;-61
2023/10/08 08:15:26;;;;;;;4.88;3.22;;;;;;;;;;4923917;29;20522;-61
2023/10/08 08:17:56;;;;;;;3.70;3.05;;;;;;;;;;4918540;29;20451;-61
2023/10/08 08:20:34;;;;;;;6.40;3.05;;;;;;;;;;4913105;29;20978;-61
2023/10/08 08:23:08;;;;;;;6.60;3.00;;;;;;;;;;4912847;29;20445;-61
2023/10/08 08:25:46;;;;;;;5.50;3.17;;;;;;;;;;4905155;29;20966;-62
2023/10/08 08:28:24;;;;;;;3.33;3.00;;;;;;;;;;4916028;29;20911;-62
2023/10/08 08:30:55;;;;;;;5.47;3.03;;;;;;;;;;4919475;29;20448;-62
2023/10/08 08:33:22;;;;;;;4.88;2.70;;;;;;;;;;4926965;29;21068;-62
2023/10/08 08:36:00;;;;;;;4.30;3.10;;;;;;;;;;4918138;29;20528;-60
2023/10/08 08:38:32;;;;;;;5.47;2.97;;;;;;;;;;4920873;29;20763;-60
2023/10/08 08:41:06;;;;;;;5.50;2.75;;;;;;;;;;4920724;29;20454;-59
2023/10/08 08:43:38;;;;;;;5.20;2.78;;;;;;;;;;4912115;29;20437;-60
2023/10/08 08:46:14;;;;;;;5.40;2.63;;;;;;;;;;4908552;29;20457;-60
2023/10/08 08:48:44;;;;;;;5.68;2.92;;;;;;;;;;4920204;29;20448;-60
2023/10/08 08:51:13;;;;;;;5.78;3.00;;;;;;;;;;4928116;29;20444;-60
2023/10/08 08:53:43;;;;;;;4.90;2.90;;;;;;;;;;4918240;29;20495;-60
2023/10/08 08:56:12;;;;;;;6.03;2.67;;;;;;;;;;4922702;29;20443;-60
2023/10/08 08:58:41;;;;;;;4.65;3.08;;;;;;;;;;4926690;29;20451;-60
2023/10/08 09:01:12;;;;;;;4.00;2.90;;;;;;;;;;4924475;29;20599;-60
2023/10/08 09:03:40;;;;;;;5.03;2.75;;;;;;;;;;4920206;29;20914;-60
2023/10/08 09:06:07;;;;;;;5.18;3.10;;;;;;;;;;4922285;29;20440;-60
2023/10/08 09:08:36;;;;;;;3.60;2.78;;;;;;;;;;4916283;29;20476;-60
2023/10/08 09:11:04;;;;;;;5.63;2.67;;;;;;;;;;4917214;29;20444;-60
2023/10/08 09:13:33;;;;;;;5.55;2.80;;;;;;;;;;4918641;29;20475;-61
2023/10/08 09:16:12;;;;;;;4.00;2.80;;;;;;;;;;4924806;29;20874;-60
2023/10/08 09:18:41;;;;;;;5.18;2.70;;;;;;;;;;4920735;29;20471;-61
2023/10/08 09:21:10;;;;;;;3.67;2.50;;;;;;;;;;4924387;29;20447;-61
2023/10/08 09:23:44;;;;;;;4.47;2.58;;;;;;;;;;4917429;29;20439;-61
2023/10/08 09:26:19;;;;;;;4.90;2.75;;;;;;;;;;4922473;29;20450;-61
2023/10/08 09:28:47;;;;;;;3.10;2.80;;;;;;;;;;4926868;29;20467;-61
2023/10/08 09:31:14;;;;;;;3.80;2.70;;;;;;;;;;4926455;29;20442;-61
2023/10/08 09:33:42;;;;;;;3.80;2.70;;;;;;;;;;4924086;29;20476;-61
2023/10/08 09:36:18;;;;;;;4.75;2.60;;;;;;;;;;4923706;29;20753;-61
2023/10/08 09:38:48;;;;;;;4.43;3.00;;;;;;;;;;4905949;29;20504;-61
2023/10/08 09:41:15;;;;;;;4.80;3.20;;;;;;;;;;4924123;29;20447;-61
2023/10/08 09:43:45;;;;;;;3.57;2.83;;;;;;;;;;4918793;29;20491;-61
2023/10/08 09:46:16;;;;;;;3.28;2.42;;;;;;;;;;4922903;29;20450;-61
2023/10/08 09:48:48;;;;;;;3.92;2.60;;;;;;;;;;4922055;29;20472;-62
2023/10/08 09:51:16;;;;;;;5.72;2.58;;;;;;;;;;4925373;29;20438;-62
2023/10/08 09:53:58;;;;;;;3.95;2.80;;;;;;;;;;4928241;29;20530;-62
2023/10/08 09:56:28;;;;;;;6.33;2.70;;;;;;;;;;4920728;29;20447;-62
2023/10/08 09:58:59;;;;;;;4.37;2.73;;;;;;;;;;4924987;29;20451;-62
2023/10/08 10:01:26;;;;;;;5.60;2.83;;;;;;;;;;4927087;29;20498;-62
2023/10/08 10:03:53;;;;;;;3.60;2.60;;;;;;;;;;4919131;29;20479;-62
2023/10/08 10:06:22;;;;;;;3.50;2.50;;;;;;;;;;4912003;29;21013;-74
2023/10/08 10:08:49;;;;;;;4.60;2.50;;;;;;;;;;4921869;29;20445;-74
2023/10/08 10:11:16;;;;;;;5.60;2.70;;;;;;;;;;4915401;29;20829;-74
2023/10/08 10:13:46;;;;;;;4.53;3.00;;;;;;;;;;4929136;29;20523;-74
2023/10/08 10:16:17;;;;;;;5.25;3.25;;;;;;;;;;4932526;29;20443;-74
2023/10/08 10:18:49;;;;;;;4.40;2.80;;;;;;;;;;4930415;29;20443;-74
2023/10/08 10:21:16;;;;;;;5.00;2.70;;;;;;;;;;4927536;29;20439;-74
2023/10/08 10:23:45;;;;;;;3.35;2.45;;;;;;;;;;4924032;29;20455;-73
2023/10/08 10:26:34;;;;;;;4.53;2.60;;;;;;;;;;4921409;29;20550;-74
2023/10/08 10:29:10;;;;;;;3.97;2.60;;;;;;;;;;4920886;29;20436;-74
2023/10/08 10:31:38;;;;;;;6.25;3.03;;;;;;;;;;4920525;29;20940;-74
2023/10/08 10:34:08;;;;;;;3.83;2.58;;;;;;;;;;4921662;29;20456;-73
2023/10/08 10:36:35;;;;;;;5.40;2.88;;;;;;;;;;4930479;29;20517;-74
2023/10/08 10:42:03;;;;;;;6.65;3.00;;;;;;;;;;4865722;29;20444;-74
2023/10/08 10:44:37;;;;;;;8.50;2.60;;;;;;;;;;4864642;29;20440;-73
2023/10/08 10:52:44;;;;;;;4.28;3.00;;;;;;;;;;4869761;29;20511;-74
2023/10/08 10:55:21;;;;;;;6.53;2.97;;;;;;;;;;4867942;29;20563;-74
2023/10/08 10:58:04;;;;;;;7.35;2.42;;;;;;;;;;4857788;29;20482;-74
2023/10/08 11:03:04;;;;;;;6.30;2.97;;;;;;;;;;4864708;29;20451;-74
2023/10/08 11:05:36;;;;;;;5.45;2.85;;;;;;;;;;4868821;29;20472;-73
2023/10/08 11:08:06;;;;;;;4.57;2.90;;;;;;;;;;4869754;29;20433;-73
2023/10/08 11:10:38;;;;;;;4.30;2.67;;;;;;;;;;4870933;29;20447;-73
2023/10/08 11:13:14;;;;;;;4.83;3.00;;;;;;;;;;4868812;29;20793;-74
2023/10/08 11:15:51;;;;;;;4.63;2.93;;;;;;;;;;4866016;29;20882;-73
2023/10/08 11:18:24;;;;;;;5.05;2.80;;;;;;;;;;4879721;29;21031;-73
2023/10/08 11:21:01;;;;;;;6.33;3.13;;;;;;;;;;4919968;29;20437;-74
2023/10/08 11:23:35;;;;;;;4.20;2.85;;;;;;;;;;4906414;29;20439;-73
2023/10/08 11:26:03;;;;;;;5.83;3.47;;;;;;;;;;4922258;29;20445;-74
2023/10/08 11:28:47;;;;;;;7.27;3.27;;;;;;;;;;4923677;29;20439;-73
2023/10/08 11:31:19;;;;;;;5.53;3.47;;;;;;;;;;4922287;29;20542;-72
2023/10/08 11:33:56;;;;;;;6.17;3.10;;;;;;;;;;4920926;29;20539;-73
2023/10/08 11:36:33;;;;;;;6.57;3.05;;;;;;;;;;4918762;29;20439;-73
2023/10/08 11:39:21;;;;;;;4.15;2.90;;;;;;;;;;4921990;29;21603;-73
2023/10/08 11:42:02;;;;;;;4.15;2.83;;;;;;;;;;4920092;29;20439;-72
2023/10/08 11:44:31;;;;;;;6.28;3.40;;;;;;;;;;4927928;29;20934;-72
2023/10/08 11:47:09;;;;;;;5.82;3.20;;;;;;;;;;4928003;29;20435;-73
2023/10/08 11:49:36;;;;;;;5.90;2.97;;;;;;;;;;4912581;29;20449;-73
2023/10/08 11:52:03;;;;;;;8.30;3.17;;;;;;;;;;4925879;29;20439;-73
2023/10/08 11:54:32;;;;;;;6.68;3.28;;;;;;;;;;4923226;29;20502;-73
2023/10/08 11:57:03;;;;;;;4.95;2.88;;;;;;;;;;4921625;29;20572;-72
2023/10/08 11:59:32;;;;;;;4.72;3.08;;;;;;;;;;4922781;29;20863;-73
2023/10/08 12:01:59;;;;;;;6.28;3.33;;;;;;;;;;4908850;29;20574;-72
2023/10/08 12:04:29;;;;;;;5.10;3.00;;;;;;;;;;4928636;29;20484;-73
2023/10/08 12:06:57;;;;;;;4.88;3.20;;;;;;;;;;4929699;29;20447;-74
2023/10/08 12:09:27;;;;;;;4.82;2.95;;;;;;;;;;4928038;29;20529;-74
2023/10/08 12:11:57;;;;;;;7.13;3.30;;;;;;;;;;4922348;29;20477;-74
2023/10/08 12:14:30;;;;;;;4.57;2.83;;;;;;;;;;4914132;29;21122;-73
2023/10/08 12:17:00;;;;;;;6.20;3.07;;;;;;;;;;4922153;29;20527;-73
2023/10/08 12:19:29;;;;;;;5.60;2.90;;;;;;;;;;4919163;29;20448;-72
2023/10/08 12:21:56;;;;;;;5.68;3.10;;;;;;;;;;4923262;29;20606;-72
2023/10/08 12:24:23;;;;;;;6.47;3.10;;;;;;;;;;4899376;29;20867;-73
2023/10/08 12:26:55;;;;;;;5.00;3.15;;;;;;;;;;4928433;29;21274;-72
2023/10/08 12:29:24;;;;;;;7.17;3.37;;;;;;;;;;4919333;29;20552;-72
2023/10/08 12:31:53;;;;;;;7.50;3.53;;;;;;;;;;4919396;29;20977;-71
2023/10/08 12:34:22;;;;;;;5.25;3.10;;;;;;;;;;4911983;29;20491;-72
2023/10/08 12:36:50;;;;;;;5.43;3.20;;;;;;;;;;4918602;29;20513;-73
2023/10/08 12:39:25;;;;;;;7.85;3.08;;;;;;;;;;4927092;29;20467;-74
2023/10/08 12:41:53;;;;;;;5.37;2.97;;;;;;;;;;4921799;29;20479;-73
2023/10/08 12:44:23;;;;;;;9.25;3.20;;;;;;;;;;4913743;29;20436;-73
2023/10/08 12:46:51;;;;;;;6.63;3.00;;;;;;;;;;4925665;29;20922;-72
2023/10/08 12:49:21;;;;;;;6.22;3.17;;;;;;;;;;4920138;29;20469;-72
2023/10/08 12:51:48;;;;;;;5.32;2.88;;;;;;;;;;4922212;29;20439;-72
2023/10/08 12:54:22;;;;;;;7.95;3.28;;;;;;;;;;4920118;29;21349;-73
2023/10/08 12:56:49;;;;;;;9.35;3.33;;;;;;;;;;4910377;29;20439;-73
2023/10/08 12:59:23;;;;;;;10.02;3.35;;;;;;;;;;4900286;29;20797;-73
2023/10/08 13:01:54;;;;;;;5.82;2.75;;;;;;;;;;4922738;29;20458;-73
2023/10/08 13:04:34;;;;;;;8.32;3.13;;;;;;;;;;4925181;29;20435;-73
2023/10/08 13:07:02;;;;;;;5.68;3.08;;;;;;;;;;4924109;29;20471;-73
2023/10/08 13:09:36;;;;;;;6.63;2.97;;;;;;;;;;4924184;29;20453;-73
2023/10/08 13:12:04;;;;;;;6.18;2.95;;;;;;;;;;4927196;29;20444;-73
2023/10/08 13:14:34;;;;;;;7.95;2.90;;;;;;;;;;4914504;29;20502;-73
2023/10/08 13:17:03;;;;;;;6.43;2.97;;;;;;;;;;4907585;29;20458;-73
2023/10/08 13:19:33;;;;;;;7.20;3.03;;;;;;;;;;4921608;29;20445;-73
2023/10/08 13:22:06;;;;;;;7.63;3.00;;;;;;;;;;4918303;29;20495;-73
2023/10/08 13:24:36;;;;;;;9.32;3.70;;;;;;;;;;4924698;29;20790;-73
2023/10/08 13:27:06;;;;;;;5.72;2.80;;;;;;;;;;4927618;29;20503;-73
2023/10/08 13:29:34;;;;;;;5.75;3.67;;;;;;;;;;4927447;29;20443;-73
2023/10/08 13:32:03;;;;;;;6.97;3.50;;;;;;;;;;4921152;29;20444;-73
2023/10/08 13:34:31;;;;;;;7.00;3.03;;;;;;;;;;4924700;29;20446;-74
2023/10/08 13:36:58;;;;;;;8.38;3.40;;;;;;;;;;4926919;29;20451;-73
2023/10/08 13:39:27;;;;;;;6.00;3.33;;;;;;;;;;4916373;29;20544;-73
2023/10/08 13:41:56;;;;;;;6.10;3.00;;;;;;;;;;4927060;29;20481;-72
2023/10/08 13:44:28;;;;;;;7.33;3.30;;;;;;;;;;4921473;29;20519;-72
2023/10/08 13:46:58;;;;;;;6.07;2.72;;;;;;;;;;4921937;29;20444;-73
2023/10/08 13:49:29;;;;;;;6.18;3.20;;;;;;;;;;4927261;29;20844;-72
2023/10/08 13:51:56;;;;;;;8.17;3.07;;;;;;;;;;4921371;29;20467;-72
2023/10/08 13:54:35;;;;;;;4.93;3.03;;;;;;;;;;4915123;29;20534;-73
2023/10/08 13:57:08;;;;;;;4.73;2.77;;;;;;;;;;4927861;29;20447;-72
2023/10/08 13:59:38;;;;;;;11.10;4.15;;;;;;;;;;4908280;29;20534;-73
2023/10/08 14:02:14;;;;;;;5.50;3.08;;;;;;;;;;4927847;29;20439;-73
2023/10/08 14:04:53;;;;;;;5.55;2.85;;;;;;;;;;4922639;29;20445;-73
2023/10/08 14:07:24;;;;;;;4.75;2.83;;;;;;;;;;4922605;29;20441;-72
2023/10/08 14:09:53;;;;;;;5.30;2.70;;;;;;;;;;4920905;29;21221;-72
2023/10/08 14:12:20;;;;;;;7.90;3.50;;;;;;;;;;4926536;29;20502;-72
2023/10/08 14:14:49;;;;;;;6.80;3.15;;;;;;;;;;4920466;29;20529;-72
2023/10/08 14:17:39;;;;;;;6.53;2.90;;;;;;;;;;4927614;29;20502;-73
2023/10/08 14:20:12;;;;;;;6.77;3.03;;;;;;;;;;4929568;29;20432;-73
2023/10/08 14:22:41;;;;;;;7.43;2.58;;;;;;;;;;4920947;29;20443;-72
2023/10/08 14:25:12;;;;;;;7.60;2.80;;;;;;;;;;4925253;29;21273;-73
2023/10/08 14:27:51;;;;;;;6.18;2.75;;;;;;;;;;4919833;29;20537;-72
2023/10/08 14:30:21;;;;;;;6.00;2.90;;;;;;;;;;4920071;29;20444;-73
2023/10/08 14:32:48;;;;;;;7.73;3.10;;;;;;;;;;4918416;29;21264;-73
2023/10/08 14:43:48;;;;;;;4.78;2.80;;;;;;;;;;4882423;29;20440;-73
2023/10/08 14:46:15;;;;;;;6.72;3.53;;;;;;;;;;4922799;29;20448;-73
2023/10/08 14:48:46;;;;;;;7.25;3.25;;;;;;;;;;4926129;29;20885;-70
2023/10/08 14:51:19;;;;;;;6.57;2.80;;;;;;;;;;4919756;29;20559;-73
2023/10/08 14:53:47;;;;;;;6.57;2.97;;;;;;;;;;4929093;29;20915;-73
2023/10/08 14:56:15;;;;;;;6.40;3.03;;;;;;;;;;4924187;29;20785;-74
2023/10/08 14:58:43;;;;;;;5.75;2.97;;;;;;;;;;4912681;29;20510;-70
2023/10/08 15:01:13;;;;;;;5.67;3.20;;;;;;;;;;4925962;29;20443;-73
2023/10/08 15:03:40;;;;;;;5.10;2.92;;;;;;;;;;4925506;29;20439;-73
2023/10/08 15:06:10;;;;;;;9.70;3.28;;;;;;;;;;4922151;29;20511;-73
2023/10/08 15:08:37;;;;;;;7.27;2.83;;;;;;;;;;4910926;29;20449;-73
2023/10/08 15:11:06;;;;;;;5.85;2.97;;;;;;;;;;4926873;29;20463;-73
2023/10/08 15:13:38;;;;;;;4.32;3.05;;;;;;;;;;4912212;29;20455;-73
2023/10/08 15:16:05;;;;;;;6.10;3.22;;;;;;;;;;4928396;29;20526;-73
2023/10/08 15:18:41;;;;;;;6.32;2.83;;;;;;;;;;4904343;29;21011;-72
2023/10/08 15:21:12;;;;;;;7.35;2.80;;;;;;;;;;4920782;29;21275;-74
2023/10/08 15:23:39;;;;;;;4.70;2.80;;;;;;;;;;4924580;29;20444;-73
2023/10/08 15:26:06;;;;;;;5.85;3.15;;;;;;;;;;4920557;29;20488;-72
2023/10/08 15:28:34;;;;;;;6.32;2.85;;;;;;;;;;4918888;29;20477;-73
2023/10/08 15:31:01;;;;;;;6.05;3.17;;;;;;;;;;4915784;29;20468;-70
2023/10/08 15:33:29;;;;;;;12.57;3.25;;;;;;;;;;4918845;29;20476;-73
2023/10/08 15:35:57;;;;;;;7.72;2.88;;;;;;;;;;4900286;29;20534;-71
2023/10/08 15:38:25;;;;;;;12.15;3.03;;;;;;;;;;4927954;29;20538;-73
2023/10/08 15:40:54;;;;;;;8.20;3.17;;;;;;;;;;4925788;29;20448;-74
2023/10/08 15:43:21;;;;;;;9.70;3.45;;;;;;;;;;4925585;29;20539;-74
2023/10/08 15:45:52;;;;;;;5.90;2.97;;;;;;;;;;4918892;29;20444;-73
2023/10/08 15:48:19;;;;;;;6.70;3.15;;;;;;;;;;4918415;29;20945;-73
2023/10/08 15:50:46;;;;;;;8.23;3.00;;;;;;;;;;4913877;29;20488;-74
2023/10/08 15:53:14;;;;;;;10.10;3.20;;;;;;;;;;4919629;29;20555;-73
2023/10/08 15:55:42;;;;;;;5.18;2.90;;;;;;;;;;4922152;29;21041;-73
2023/10/08 15:58:09;;;;;;;7.47;2.80;;;;;;;;;;4924512;29;20597;-73
2023/10/08 16:00:36;;;;;;;5.22;2.85;;;;;;;;;;4904757;29;20533;-74
2023/10/08 16:03:05;;;;;;;7.30;3.20;;;;;;;;;;4921160;29;20521;-74
2023/10/08 16:05:35;;;;;;;7.05;3.10;;;;;;;;;;4928302;29;20442;-73
2023/10/08 16:08:02;;;;;;;6.85;3.03;;;;;;;;;;4916886;29;20524;-74
2023/10/08 16:10:29;;;;;;;7.53;3.20;;;;;;;;;;4921311;29;20449;-74
2023/10/08 16:12:57;;;;;;;5.43;3.20;;;;;;;;;;4922899;29;21211;-74
2023/10/08 16:15:24;;;;;;;6.80;2.92;;;;;;;;;;4914500;29;20496;-74
2023/10/08 16:17:51;;;;;;;5.43;3.05;;;;;;;;;;4923335;29;20933;-74
2023/10/08 16:20:20;;;;;;;8.50;3.58;;;;;;;;;;4910336;29;20530;-74
2023/10/08 16:22:50;;;;;;;8.38;3.20;;;;;;;;;;4927854;29;20435;-74
2023/10/08 16:25:18;;;;;;;4.72;3.10;;;;;;;;;;4923152;29;20827;-74
2023/10/08 16:27:49;;;;;;;5.93;3.37;;;;;;;;;;4922345;29;20475;-74